Time;durP1;ratioP1;P1;durP2;ratioP2;P2;SDS_P1;SDS_P2;PMS_P1;PMS_P2;Temp;Humidity;BMP_temperature;BMP_pressure;BME280_temperature;BME280_humidity;BME280_pressure;Samples;Min_cycle;Max_cycle;Signal;HPM_P1;HPM_P2
2021/03/30 00:01:19;;;;;;;26.65;5.07;;;;;;;;;;5064316;28;20047;-59
2021/03/30 00:03:45;;;;;;;32.67;6.28;;;;;;;;;;5059060;28;20583;-59
2021/03/30 00:06:11;;;;;;;31.42;5.35;;;;;;;;;;5067152;28;20044;-59
2021/03/30 00:08:38;;;;;;;37.42;6.40;;;;;;;;;;5065465;28;20492;-59
2021/03/30 00:11:05;;;;;;;24.57;5.00;;;;;;;;;;5065589;28;20036;-58
2021/03/30 00:13:31;;;;;;;25.50;4.57;;;;;;;;;;5068882;28;20048;-59
2021/03/30 00:15:57;;;;;;;31.42;5.55;;;;;;;;;;5064845;28;20348;-59
2021/03/30 00:18:23;;;;;;;20.48;4.13;;;;;;;;;;5066878;28;20071;-59
2021/03/30 00:20:50;;;;;;;30.33;4.93;;;;;;;;;;5064843;28;20117;-59
2021/03/30 00:23:16;;;;;;;21.95;4.10;;;;;;;;;;5065091;28;20252;-59
2021/03/30 00:25:42;;;;;;;14.88;3.50;;;;;;;;;;5069745;28;20052;-59
2021/03/30 00:28:08;;;;;;;17.27;3.90;;;;;;;;;;5064658;28;20496;-58
2021/03/30 00:30:34;;;;;;;26.52;5.03;;;;;;;;;;5067034;28;20044;-59
2021/03/30 00:33:01;;;;;;;24.20;5.30;;;;;;;;;;5053541;28;20068;-59
2021/03/30 00:35:27;;;;;;;24.55;4.65;;;;;;;;;;5065644;28;20568;-59
2021/03/30 00:37:53;;;;;;;27.55;5.00;;;;;;;;;;5062805;28;20459;-59
2021/03/30 00:40:20;;;;;;;30.53;5.70;;;;;;;;;;5061334;28;20501;-59
2021/03/30 00:42:46;;;;;;;25.15;6.03;;;;;;;;;;5066388;28;20052;-59
2021/03/30 00:45:13;;;;;;;34.38;6.03;;;;;;;;;;5066474;28;20037;-59
2021/03/30 00:47:41;;;;;;;24.55;6.35;;;;;;;;;;5061730;28;20148;-58
2021/03/30 00:50:09;;;;;;;28.67;6.40;;;;;;;;;;5053064;28;20045;-59
2021/03/30 00:52:37;;;;;;;24.02;6.28;;;;;;;;;;5069797;28;20040;-59
2021/03/30 00:55:13;;;;;;;29.60;5.72;;;;;;;;;;5067594;28;20503;-59
2021/03/30 00:57:45;;;;;;;30.50;6.57;;;;;;;;;;5050082;28;20484;-59
2021/03/30 01:00:12;;;;;;;25.77;7.07;;;;;;;;;;5064563;28;20052;-59
2021/03/30 01:02:38;;;;;;;;;;;;;;;;;;5058110;28;20098;-58
2021/03/30 01:05:09;;;;;;;26.55;6.22;;;;;;;;;;5065199;28;19924;-59
2021/03/30 01:07:36;;;;;;;30.25;7.80;;;;;;;;;;5063855;28;20574;-59
2021/03/30 01:10:08;;;;;;;36.58;8.45;;;;;;;;;;5066887;28;20129;-59
2021/03/30 01:12:37;;;;;;;39.00;8.55;;;;;;;;;;5060484;28;20507;-59
2021/03/30 01:15:16;;;;;;;43.10;10.00;;;;;;;;;;5061800;28;20049;-59
2021/03/30 01:17:53;;;;;;;39.78;10.05;;;;;;;;;;5061725;28;20055;-59
2021/03/30 01:20:25;;;;;;;52.65;11.77;;;;;;;;;;5066807;28;20115;-59
2021/03/30 01:22:55;;;;;;;46.35;10.95;;;;;;;;;;5062654;28;20045;-59
2021/03/30 01:25:22;;;;;;;56.78;12.80;;;;;;;;;;5064236;28;20048;-59
2021/03/30 01:27:59;;;;;;;44.38;13.30;;;;;;;;;;5062808;28;20075;-59
2021/03/30 01:30:26;;;;;;;47.80;12.13;;;;;;;;;;5063782;28;20091;-59
2021/03/30 01:33:01;;;;;;;49.87;12.17;;;;;;;;;;5068528;28;20047;-59
2021/03/30 01:35:28;;;;;;;32.05;10.93;;;;;;;;;;5061924;28;20364;-58
2021/03/30 01:37:54;;;;;;;43.80;10.97;;;;;;;;;;5057561;28;20041;-59
2021/03/30 01:40:26;;;;;;;33.43;10.57;;;;;;;;;;5059823;28;20207;-59
2021/03/30 01:42:52;;;;;;;38.20;10.35;;;;;;;;;;5066648;28;20461;-59
2021/03/30 01:45:19;;;;;;;38.97;9.30;;;;;;;;;;5065009;28;20041;-59
2021/03/30 01:47:46;;;;;;;39.95;9.95;;;;;;;;;;5062529;28;20064;-59
2021/03/30 01:50:12;;;;;;;35.50;9.00;;;;;;;;;;5060456;28;20045;-58
2021/03/30 01:52:39;;;;;;;34.95;9.75;;;;;;;;;;5067011;28;20040;-58
2021/03/30 01:55:09;;;;;;;38.67;9.45;;;;;;;;;;5065715;28;20040;-58
2021/03/30 01:57:36;;;;;;;31.83;7.72;;;;;;;;;;5069088;28;20131;-59
2021/03/30 02:00:05;;;;;;;23.63;7.45;;;;;;;;;;5068745;28;20090;-59
2021/03/30 02:02:38;;;;;;;27.20;7.82;;;;;;;;;;5062594;28;20124;-59
2021/03/30 02:05:04;;;;;;;27.33;7.00;;;;;;;;;;5065410;28;20044;-59
2021/03/30 02:07:32;;;;;;;19.83;5.90;;;;;;;;;;5065113;28;20056;-59
2021/03/30 02:10:02;;;;;;;20.15;5.82;;;;;;;;;;5063384;28;20032;-59
2021/03/30 02:12:31;;;;;;;21.30;5.70;;;;;;;;;;5062450;28;20040;-59
2021/03/30 02:14:58;;;;;;;16.58;6.20;;;;;;;;;;5069305;28;20107;-59
2021/03/30 02:17:24;;;;;;;20.92;6.03;;;;;;;;;;5060650;28;20068;-58
2021/03/30 02:20:05;;;;;;;25.23;7.60;;;;;;;;;;5060128;28;20068;-59
2021/03/30 02:22:34;;;;;;;16.23;5.90;;;;;;;;;;5062189;28;20052;-59
2021/03/30 02:25:01;;;;;;;28.70;7.15;;;;;;;;;;5064793;28;20629;-59
2021/03/30 02:27:28;;;;;;;19.20;6.75;;;;;;;;;;5065764;28;20118;-59
2021/03/30 02:29:57;;;;;;;22.87;7.57;;;;;;;;;;5060265;28;20044;-59
2021/03/30 02:32:27;;;;;;;27.75;7.80;;;;;;;;;;5063128;28;20076;-59
2021/03/30 02:34:55;;;;;;;30.83;7.03;;;;;;;;;;5058781;28;20053;-59
2021/03/30 02:37:21;;;;;;;23.90;7.53;;;;;;;;;;5061106;28;20045;-59
2021/03/30 02:39:48;;;;;;;24.00;7.68;;;;;;;;;;5065750;28;20040;-59
2021/03/30 02:42:15;;;;;;;31.70;8.65;;;;;;;;;;5063040;28;20079;-59
2021/03/30 02:44:42;;;;;;;31.42;10.05;;;;;;;;;;5065839;28;20048;-59
2021/03/30 02:47:09;;;;;;;33.60;10.30;;;;;;;;;;5067695;28;20043;-59
2021/03/30 02:49:35;;;;;;;50.38;12.10;;;;;;;;;;5061952;28;20055;-59
2021/03/30 02:52:03;;;;;;;59.13;14.43;;;;;;;;;;5062453;28;20051;-59
2021/03/30 02:54:29;;;;;;;47.55;15.23;;;;;;;;;;5070062;28;20064;-59
2021/03/30 02:56:58;;;;;;;55.58;15.23;;;;;;;;;;5061108;28;20059;-59
2021/03/30 02:59:25;;;;;;;64.30;14.55;;;;;;;;;;5067113;28;20530;-58
2021/03/30 03:01:51;;;;;;;57.90;16.48;;;;;;;;;;5062823;28;20102;-59
2021/03/30 03:04:18;;;;;;;82.88;17.30;;;;;;;;;;5062214;28;20487;-59
2021/03/30 03:06:44;;;;;;;103.00;18.02;;;;;;;;;;5057891;28;20120;-59
2021/03/30 03:09:11;;;;;;;75.57;16.55;;;;;;;;;;5068308;28;20068;-59
2021/03/30 03:11:39;;;;;;;81.10;16.88;;;;;;;;;;5057463;28;20144;-59
2021/03/30 03:14:07;;;;;;;80.70;16.40;;;;;;;;;;5062091;28;20037;-59
2021/03/30 03:16:34;;;;;;;82.22;16.92;;;;;;;;;;5065565;28;20051;-59
2021/03/30 03:19:01;;;;;;;71.18;15.65;;;;;;;;;;5059226;28;20519;-59
2021/03/30 03:21:27;;;;;;;78.50;15.95;;;;;;;;;;5062067;28;20055;-59
2021/03/30 03:23:53;;;;;;;68.45;16.45;;;;;;;;;;5066534;28;20033;-59
2021/03/30 03:26:19;;;;;;;74.70;16.85;;;;;;;;;;5064964;28;20090;-59
2021/03/30 03:28:46;;;;;;;81.43;18.15;;;;;;;;;;5039887;28;20052;-60
2021/03/30 03:31:13;;;;;;;86.45;17.17;;;;;;;;;;5043754;28;20041;-59
2021/03/30 03:33:39;;;;;;;78.80;18.35;;;;;;;;;;5030430;28;20153;-59
2021/03/30 03:36:10;;;;;;;96.60;18.05;;;;;;;;;;5039539;28;20606;-58
2021/03/30 03:38:40;;;;;;;98.35;20.25;;;;;;;;;;5049035;28;20059;-59
2021/03/30 03:41:07;;;;;;;91.45;17.38;;;;;;;;;;5049135;28;20489;-59
2021/03/30 03:43:33;;;;;;;91.60;19.13;;;;;;;;;;5048737;28;20069;-59
2021/03/30 03:45:59;;;;;;;88.07;17.55;;;;;;;;;;5047894;28;20045;-59
2021/03/30 03:48:26;;;;;;;85.60;18.50;;;;;;;;;;5055624;28;20452;-59
2021/03/30 03:51:04;;;;;;;98.65;19.30;;;;;;;;;;5043968;28;20592;-59
2021/03/30 03:53:34;;;;;;;89.50;18.25;;;;;;;;;;5051251;28;20048;-59
2021/03/30 03:56:00;;;;;;;91.65;19.40;;;;;;;;;;5049290;28;20045;-59
2021/03/30 03:58:46;;;;;;;92.07;19.60;;;;;;;;;;5035076;28;20493;-59
2021/03/30 04:01:17;;;;;;;100.63;16.83;;;;;;;;;;5048325;28;20064;-59
2021/03/30 04:04:04;;;;;;;69.03;17.10;;;;;;;;;;5052210;28;20452;-59
2021/03/30 04:06:35;;;;;;;88.03;18.13;;;;;;;;;;5052528;28;20041;-59
2021/03/30 04:09:02;;;;;;;84.30;17.42;;;;;;;;;;5051365;28;20052;-59
2021/03/30 04:11:29;;;;;;;86.80;19.17;;;;;;;;;;5050315;28;20116;-59
2021/03/30 04:13:56;;;;;;;78.18;17.63;;;;;;;;;;5050557;28;20049;-59
2021/03/30 04:16:22;;;;;;;88.40;17.20;;;;;;;;;;5052202;28;20087;-58
2021/03/30 04:18:48;;;;;;;99.28;17.40;;;;;;;;;;5048056;28;20519;-59
2021/03/30 04:21:21;;;;;;;91.65;17.73;;;;;;;;;;5050875;28;20075;-59
2021/03/30 04:23:49;;;;;;;96.32;17.65;;;;;;;;;;5046788;28;20456;-59
2021/03/30 04:26:15;;;;;;;92.80;17.20;;;;;;;;;;5046426;28;20045;-59
2021/03/30 04:28:41;;;;;;;93.60;16.98;;;;;;;;;;5067243;28;20063;-59
2021/03/30 04:31:07;;;;;;;110.10;18.13;;;;;;;;;;5050344;28;20166;-59
2021/03/30 04:33:34;;;;;;;102.55;18.67;;;;;;;;;;5066380;28;20053;-59
2021/03/30 04:36:00;;;;;;;75.70;15.93;;;;;;;;;;5068127;28;20047;-58
2021/03/30 04:38:27;;;;;;;85.32;17.92;;;;;;;;;;5061521;28;20441;-58
2021/03/30 04:40:54;;;;;;;72.70;14.52;;;;;;;;;;5061138;28;20033;-59
2021/03/30 04:43:23;;;;;;;85.07;16.63;;;;;;;;;;5065792;28;20492;-60
2021/03/30 04:45:50;;;;;;;75.85;15.18;;;;;;;;;;5067919;28;20042;-59
2021/03/30 04:48:16;;;;;;;89.32;16.67;;;;;;;;;;5065088;28;20098;-59
2021/03/30 04:50:43;;;;;;;100.85;16.02;;;;;;;;;;5050877;28;20053;-59
2021/03/30 04:53:09;;;;;;;91.38;16.50;;;;;;;;;;5062566;28;20037;-59
2021/03/30 04:55:36;;;;;;;94.37;17.37;;;;;;;;;;5063239;28;20523;-59
2021/03/30 04:58:02;;;;;;;88.57;14.88;;;;;;;;;;5062988;28;20053;-59
2021/03/30 05:00:29;;;;;;;92.28;16.35;;;;;;;;;;5063397;28;20052;-59
2021/03/30 05:02:55;;;;;;;94.40;16.40;;;;;;;;;;5063180;28;20109;-59
2021/03/30 05:05:21;;;;;;;88.88;17.27;;;;;;;;;;5067218;28;20052;-59
2021/03/30 05:07:47;;;;;;;92.55;16.67;;;;;;;;;;5059063;28;20041;-59
2021/03/30 05:10:14;;;;;;;80.47;16.85;;;;;;;;;;5064175;28;20044;-60
2021/03/30 05:12:40;;;;;;;78.85;16.50;;;;;;;;;;5060879;28;20040;-59
2021/03/30 05:15:07;;;;;;;68.32;14.55;;;;;;;;;;5069833;28;20095;-59
2021/03/30 05:17:34;;;;;;;72.53;15.70;;;;;;;;;;5066932;28;20048;-59
2021/03/30 05:20:00;;;;;;;71.80;13.90;;;;;;;;;;5057453;28;20045;-59
2021/03/30 05:22:27;;;;;;;83.53;14.90;;;;;;;;;;5060222;28;20041;-59
2021/03/30 05:24:53;;;;;;;60.90;13.27;;;;;;;;;;5062101;28;20657;-59
2021/03/30 05:27:19;;;;;;;66.95;14.35;;;;;;;;;;5068390;28;20055;-59
2021/03/30 05:29:45;;;;;;;60.70;13.43;;;;;;;;;;5065379;28;20040;-59
2021/03/30 05:32:13;;;;;;;74.40;12.68;;;;;;;;;;5066283;28;20070;-59
2021/03/30 05:34:39;;;;;;;;;;;;;;;;;;5063919;28;20044;-59
2021/03/30 05:37:05;;;;;;;63.17;11.95;;;;;;;;;;5067004;28;20292;-59
2021/03/30 05:39:32;;;;;;;67.90;12.45;;;;;;;;;;5065165;28;20064;-59
2021/03/30 05:41:59;;;;;;;77.97;14.10;;;;;;;;;;5060322;28;20056;-59
2021/03/30 05:44:26;;;;;;;55.72;12.05;;;;;;;;;;5059576;28;20052;-59
2021/03/30 05:49:31;;;;;;;69.63;12.95;;;;;;;;;;5064818;28;20041;-59
2021/03/30 05:51:58;;;;;;;61.70;12.35;;;;;;;;;;5068649;28;20044;-59
2021/03/30 05:54:24;;;;;;;51.10;12.05;;;;;;;;;;5068983;28;20071;-59
2021/03/30 05:57:05;;;;;;;68.50;12.90;;;;;;;;;;5063411;28;20044;-59
2021/03/30 05:59:33;;;;;;;57.30;13.30;;;;;;;;;;5066569;28;20037;-59
2021/03/30 06:02:00;;;;;;;59.47;12.55;;;;;;;;;;5066954;28;20438;-59
2021/03/30 06:04:27;;;;;;;61.65;13.13;;;;;;;;;;5064971;28;20089;-59
2021/03/30 06:06:53;;;;;;;57.75;13.13;;;;;;;;;;5052785;28;20412;-59
2021/03/30 06:09:19;;;;;;;55.63;11.25;;;;;;;;;;5060703;28;20382;-59
2021/03/30 06:12:02;;;;;;;50.45;10.85;;;;;;;;;;5056499;28;20090;-59
2021/03/30 06:14:39;;;;;;;46.17;11.00;;;;;;;;;;5067402;28;20045;-59
2021/03/30 06:17:06;;;;;;;43.70;10.38;;;;;;;;;;5071075;28;20070;-59
2021/03/30 06:19:45;;;;;;;45.45;10.30;;;;;;;;;;5061268;28;20048;-59
2021/03/30 06:22:12;;;;;;;35.28;9.38;;;;;;;;;;5060675;28;20045;-59
2021/03/30 06:24:38;;;;;;;30.77;8.45;;;;;;;;;;5061151;28;20052;-59
2021/03/30 06:27:04;;;;;;;32.10;7.53;;;;;;;;;;5059925;28;21752;-59
2021/03/30 06:29:38;;;;;;;34.75;7.50;;;;;;;;;;5045833;28;20108;-59
2021/03/30 06:32:12;;;;;;;31.00;7.65;;;;;;;;;;5041527;28;20037;-59
2021/03/30 06:34:40;;;;;;;34.92;8.68;;;;;;;;;;5043105;28;20045;-59
2021/03/30 06:37:33;;;;;;;43.47;9.38;;;;;;;;;;5040892;28;20073;-59
2021/03/30 06:40:11;;;;;;;37.72;8.95;;;;;;;;;;5044560;28;20045;-59
2021/03/30 06:42:49;;;;;;;52.63;9.45;;;;;;;;;;5033603;28;20102;-59
2021/03/30 06:45:24;;;;;;;44.53;9.73;;;;;;;;;;5045685;28;20125;-59
2021/03/30 06:47:55;;;;;;;47.38;10.63;;;;;;;;;;5043997;28;20045;-59
2021/03/30 06:50:32;;;;;;;43.88;9.05;;;;;;;;;;5043831;28;20045;-59
2021/03/30 06:53:08;;;;;;;42.13;9.02;;;;;;;;;;5044405;28;20524;-59
2021/03/30 06:55:44;;;;;;;48.83;8.95;;;;;;;;;;5045698;28;20077;-59
2021/03/30 06:58:13;;;;;;;58.25;10.98;;;;;;;;;;5045573;28;20046;-60
2021/03/30 07:00:43;;;;;;;55.53;9.65;;;;;;;;;;5033960;28;20726;-59
2021/03/30 07:03:09;;;;;;;44.35;9.63;;;;;;;;;;5039533;28;20037;-59
2021/03/30 07:05:38;;;;;;;54.63;9.90;;;;;;;;;;5037238;28;20444;-59
2021/03/30 07:08:07;;;;;;;54.38;10.27;;;;;;;;;;5035995;28;20041;-59
2021/03/30 07:10:35;;;;;;;61.05;9.93;;;;;;;;;;5040661;28;20080;-59
2021/03/30 07:13:02;;;;;;;55.08;11.13;;;;;;;;;;5025984;28;20512;-59
2021/03/30 07:15:30;;;;;;;63.38;10.88;;;;;;;;;;5046654;28;20033;-59
2021/03/30 07:18:06;;;;;;;61.72;11.82;;;;;;;;;;5043387;28;20098;-59
2021/03/30 07:20:36;;;;;;;56.85;11.18;;;;;;;;;;5038174;28;20049;-59
2021/03/30 07:23:06;;;;;;;48.85;10.48;;;;;;;;;;5037497;28;20493;-59
2021/03/30 07:25:35;;;;;;;55.97;9.75;;;;;;;;;;5042328;28;20041;-59
2021/03/30 07:28:05;;;;;;;55.38;10.15;;;;;;;;;;5037006;28;20413;-59
2021/03/30 07:30:31;;;;;;;63.35;10.95;;;;;;;;;;5037367;28;20045;-59
2021/03/30 07:33:09;;;;;;;64.82;11.27;;;;;;;;;;5038094;28;20045;-59
2021/03/30 07:35:37;;;;;;;51.83;9.07;;;;;;;;;;5031113;28;20037;-59
2021/03/30 07:38:12;;;;;;;56.75;9.93;;;;;;;;;;5040032;28;20508;-59
2021/03/30 07:40:40;;;;;;;38.70;8.13;;;;;;;;;;5038192;28;20588;-59
2021/03/30 07:43:07;;;;;;;48.55;9.88;;;;;;;;;;5044000;28;20121;-59
2021/03/30 07:45:35;;;;;;;60.00;9.27;;;;;;;;;;5042607;28;20562;-59
2021/03/30 07:48:02;;;;;;;51.15;8.90;;;;;;;;;;5044442;28;20048;-59
2021/03/30 07:50:49;;;;;;;54.47;9.03;;;;;;;;;;5046598;28;20375;-59
2021/03/30 07:53:34;;;;;;;60.65;9.60;;;;;;;;;;5032484;28;20374;-59
2021/03/30 07:56:01;;;;;;;47.88;9.38;;;;;;;;;;5040026;28;20491;-59
2021/03/30 07:58:37;;;;;;;69.70;11.00;;;;;;;;;;5046995;28;20049;-59
2021/03/30 08:01:04;;;;;;;64.10;11.15;;;;;;;;;;5035787;28;20064;-59
2021/03/30 08:03:33;;;;;;;58.95;11.00;;;;;;;;;;5041056;28;20046;-59
2021/03/30 08:06:18;;;;;;;52.92;9.93;;;;;;;;;;5044246;28;20132;-59
2021/03/30 08:09:06;;;;;;;50.78;10.02;;;;;;;;;;5028952;28;20048;-59
2021/03/30 08:11:46;;;;;;;51.83;10.20;;;;;;;;;;5043283;28;20068;-59
2021/03/30 08:14:18;;;;;;;61.15;11.02;;;;;;;;;;5044828;28;20084;-59
2021/03/30 08:17:03;;;;;;;54.42;9.55;;;;;;;;;;5043821;28;20497;-59
2021/03/30 08:19:29;;;;;;;52.67;9.80;;;;;;;;;;5039257;28;20060;-59
2021/03/30 08:21:57;;;;;;;60.70;9.95;;;;;;;;;;5045058;28;20128;-59
2021/03/30 08:24:24;;;;;;;49.33;8.38;;;;;;;;;;5042223;28;20052;-59
2021/03/30 08:26:51;;;;;;;63.35;10.80;;;;;;;;;;5044103;28;20063;-59
2021/03/30 08:29:24;;;;;;;54.45;9.27;;;;;;;;;;5052643;28;20052;-59
2021/03/30 08:31:53;;;;;;;56.15;10.50;;;;;;;;;;5065257;28;20041;-59
2021/03/30 08:34:25;;;;;;;61.17;11.15;;;;;;;;;;5064482;28;20044;-59
2021/03/30 08:36:54;;;;;;;62.40;9.98;;;;;;;;;;5065679;28;20055;-59
2021/03/30 08:39:23;;;;;;;48.95;9.18;;;;;;;;;;5060874;28;20045;-59
2021/03/30 08:41:50;;;;;;;57.10;9.65;;;;;;;;;;5065097;28;20037;-59
2021/03/30 08:44:19;;;;;;;50.22;8.88;;;;;;;;;;5065538;28;20048;-59
2021/03/30 08:46:47;;;;;;;61.97;9.70;;;;;;;;;;5059643;28;20036;-59
2021/03/30 08:49:22;;;;;;;56.47;8.80;;;;;;;;;;5061353;28;20053;-59
2021/03/30 08:51:52;;;;;;;50.97;8.65;;;;;;;;;;5068666;28;20500;-59
2021/03/30 08:54:22;;;;;;;48.63;9.45;;;;;;;;;;5064787;28;20473;-59
2021/03/30 08:56:49;;;;;;;58.72;9.43;;;;;;;;;;5051816;28;20057;-59
2021/03/30 08:59:18;;;;;;;53.90;9.57;;;;;;;;;;5064089;28;20037;-59
2021/03/30 09:01:45;;;;;;;51.22;9.27;;;;;;;;;;5060514;28;20053;-58
2021/03/30 09:04:11;;;;;;;52.20;8.80;;;;;;;;;;5062265;28;20048;-59
2021/03/30 09:06:40;;;;;;;52.15;8.77;;;;;;;;;;5069358;28;20051;-59
2021/03/30 09:09:20;;;;;;;45.03;7.95;;;;;;;;;;5061849;28;20488;-59
2021/03/30 09:11:47;;;;;;;49.15;8.02;;;;;;;;;;5065948;28;20154;-59
2021/03/30 09:14:17;;;;;;;38.83;7.45;;;;;;;;;;5064744;28;20055;-59
2021/03/30 09:16:44;;;;;;;62.42;8.48;;;;;;;;;;5068105;28;20048;-59
2021/03/30 09:19:11;;;;;;;50.83;8.43;;;;;;;;;;5068058;28;20040;-59
2021/03/30 09:21:38;;;;;;;36.42;7.65;;;;;;;;;;5065304;28;20044;-59
2021/03/30 09:24:09;;;;;;;38.22;8.63;;;;;;;;;;5061882;28;20037;-59
2021/03/30 09:26:40;;;;;;;50.03;8.90;;;;;;;;;;5061269;28;20151;-59
2021/03/30 09:29:07;;;;;;;30.80;7.32;;;;;;;;;;5061739;28;20126;-59
2021/03/30 09:31:34;;;;;;;34.75;7.90;;;;;;;;;;5062837;28;20127;-59
2021/03/30 09:34:02;;;;;;;46.92;8.23;;;;;;;;;;5060369;28;20041;-59
2021/03/30 09:36:28;;;;;;;38.92;7.13;;;;;;;;;;5067006;28;20127;-59
2021/03/30 09:38:57;;;;;;;39.97;8.52;;;;;;;;;;5062598;28;20086;-58
2021/03/30 09:41:33;;;;;;;47.90;9.00;;;;;;;;;;5064364;28;20488;-59
2021/03/30 09:44:01;;;;;;;39.33;8.18;;;;;;;;;;5064167;28;20397;-58
2021/03/30 09:46:42;;;;;;;54.05;9.05;;;;;;;;;;5065816;28;20049;-60
2021/03/30 09:49:10;;;;;;;43.25;7.43;;;;;;;;;;5069113;28;20072;-59
2021/03/30 09:51:37;;;;;;;41.15;7.05;;;;;;;;;;5062697;28;20045;-59
2021/03/30 09:54:22;;;;;;;36.40;7.40;;;;;;;;;;5059721;28;20462;-59
2021/03/30 09:56:55;;;;;;;34.63;7.35;;;;;;;;;;5064299;28;20045;-59
2021/03/30 09:59:21;;;;;;;33.63;7.65;;;;;;;;;;5064467;28;20522;-59
2021/03/30 10:01:47;;;;;;;39.47;8.63;;;;;;;;;;5067086;28;20050;-58
2021/03/30 10:04:13;;;;;;;38.67;8.07;;;;;;;;;;5065354;28;20052;-58
2021/03/30 10:06:40;;;;;;;39.53;8.20;;;;;;;;;;5066268;28;20048;-59
2021/03/30 10:09:07;;;;;;;34.60;6.85;;;;;;;;;;5062624;28;20496;-59
2021/03/30 10:11:34;;;;;;;38.72;7.35;;;;;;;;;;5063734;28;20056;-59
2021/03/30 10:14:18;;;;;;;36.97;7.07;;;;;;;;;;5062050;28;20519;-58
2021/03/30 10:16:44;;;;;;;26.67;6.63;;;;;;;;;;5065802;28;20047;-59
2021/03/30 10:19:12;;;;;;;31.38;7.07;;;;;;;;;;5057798;28;20103;-59
2021/03/30 10:21:38;;;;;;;33.50;6.65;;;;;;;;;;5061509;28;20055;-59
2021/03/30 10:24:18;;;;;;;36.42;7.22;;;;;;;;;;5067123;28;20040;-59
2021/03/30 10:27:05;;;;;;;37.60;8.05;;;;;;;;;;5064665;28;20056;-59
2021/03/30 10:29:37;;;;;;;26.90;6.00;;;;;;;;;;5059839;28;20037;-58
2021/03/30 10:32:12;;;;;;;30.63;6.47;;;;;;;;;;5059904;28;20484;-59
2021/03/30 10:34:39;;;;;;;26.60;6.53;;;;;;;;;;5061690;28;20044;-59
2021/03/30 10:37:07;;;;;;;28.50;6.30;;;;;;;;;;5059923;28;20070;-59
2021/03/30 10:39:34;;;;;;;;;;;;;;;;;;5061297;28;20040;-59
2021/03/30 10:42:02;;;;;;;33.33;6.70;;;;;;;;;;5060471;28;19927;-59
2021/03/30 10:44:32;;;;;;;26.73;5.90;;;;;;;;;;5062279;28;20519;-58
2021/03/30 10:47:10;;;;;;;30.77;7.03;;;;;;;;;;5057309;28;20057;-58
2021/03/30 10:49:37;;;;;;;33.67;6.68;;;;;;;;;;5054467;28;20044;-58
2021/03/30 10:52:04;;;;;;;30.15;6.88;;;;;;;;;;5059706;28;20558;-59
2021/03/30 10:54:30;;;;;;;30.88;6.65;;;;;;;;;;5051098;28;20110;-59
2021/03/30 10:56:57;;;;;;;36.58;6.55;;;;;;;;;;5062430;28;20052;-58
2021/03/30 10:59:24;;;;;;;30.63;6.53;;;;;;;;;;5057020;28;20350;-58
2021/03/30 11:01:50;;;;;;;43.83;7.28;;;;;;;;;;5061918;28;20041;-58
2021/03/30 11:04:16;;;;;;;35.28;7.00;;;;;;;;;;5066495;28;20036;-58
2021/03/30 11:06:45;;;;;;;33.65;6.95;;;;;;;;;;5064941;28;20045;-58
2021/03/30 11:09:12;;;;;;;30.92;6.15;;;;;;;;;;5059894;28;20037;-59
2021/03/30 11:11:40;;;;;;;37.65;6.45;;;;;;;;;;5063766;28;20044;-59
2021/03/30 11:14:06;;;;;;;;;;;;;;;;;;5046901;28;20117;-59
2021/03/30 11:16:32;;;;;;;37.20;7.90;;;;;;;;;;5064024;28;19924;-59
2021/03/30 11:18:59;;;;;;;37.75;7.65;;;;;;;;;;5063514;28;20154;-58
2021/03/30 11:21:26;;;;;;;32.67;7.05;;;;;;;;;;5065187;28;20058;-59
2021/03/30 11:24:00;;;;;;;32.35;7.15;;;;;;;;;;5060580;28;20110;-58
2021/03/30 11:26:27;;;;;;;35.85;7.40;;;;;;;;;;5050089;28;20040;-59
2021/03/30 11:28:55;;;;;;;38.08;7.50;;;;;;;;;;5064154;28;20053;-58
2021/03/30 11:31:49;;;;;;;;;;;;;;;;;;5063849;28;20102;-59
2021/03/30 11:34:23;;;;;;;29.55;6.45;;;;;;;;;;5061772;28;19983;-59
2021/03/30 11:36:53;;;;;;;28.70;7.25;;;;;;;;;;5062253;28;20052;-58
2021/03/30 11:39:20;;;;;;;35.40;6.90;;;;;;;;;;5065014;28;20048;-59
2021/03/30 11:41:46;;;;;;;34.15;6.65;;;;;;;;;;5061604;28;20124;-58
2021/03/30 11:44:12;;;;;;;36.90;7.50;;;;;;;;;;5054027;28;20068;-58
2021/03/30 11:46:39;;;;;;;28.20;6.85;;;;;;;;;;5062821;28;20044;-58
2021/03/30 11:49:05;;;;;;;35.75;6.93;;;;;;;;;;5059101;28;20417;-59
2021/03/30 11:51:31;;;;;;;34.75;7.30;;;;;;;;;;5061155;28;20123;-59
2021/03/30 11:53:57;;;;;;;31.73;6.82;;;;;;;;;;5065353;28;20065;-59
2021/03/30 11:56:24;;;;;;;34.58;7.25;;;;;;;;;;5062271;28;20048;-59
2021/03/30 11:58:50;;;;;;;38.22;6.90;;;;;;;;;;5060402;28;20557;-59
2021/03/30 12:01:16;;;;;;;35.28;7.55;;;;;;;;;;5059444;28;20045;-59
2021/03/30 12:03:43;;;;;;;31.10;6.88;;;;;;;;;;5065074;28;20526;-59
2021/03/30 12:06:10;;;;;;;25.45;6.85;;;;;;;;;;5066592;28;20048;-59
2021/03/30 12:08:36;;;;;;;39.63;8.23;;;;;;;;;;5064710;28;20045;-59
2021/03/30 12:11:04;;;;;;;37.42;6.97;;;;;;;;;;5063271;28;20095;-59
2021/03/30 12:13:30;;;;;;;30.58;7.15;;;;;;;;;;5062589;28;20111;-59
2021/03/30 12:15:57;;;;;;;43.42;7.20;;;;;;;;;;5059242;28;20045;-59
2021/03/30 12:18:23;;;;;;;30.52;7.07;;;;;;;;;;5067965;28;20043;-59
2021/03/30 12:20:49;;;;;;;40.50;6.90;;;;;;;;;;5064561;28;20052;-59
2021/03/30 12:23:15;;;;;;;34.92;7.75;;;;;;;;;;5063313;28;20045;-59
2021/03/30 12:25:41;;;;;;;31.23;6.65;;;;;;;;;;5069573;28;20044;-59
2021/03/30 12:28:07;;;;;;;34.75;7.03;;;;;;;;;;5062502;28;20557;-58
2021/03/30 12:30:34;;;;;;;26.20;5.65;;;;;;;;;;5068601;28;20090;-59
2021/03/30 12:33:00;;;;;;;36.38;7.35;;;;;;;;;;5068602;28;20039;-59
2021/03/30 12:35:26;;;;;;;36.53;6.68;;;;;;;;;;5063389;28;20090;-59
2021/03/30 12:37:53;;;;;;;40.10;7.25;;;;;;;;;;5066242;28;20149;-59
2021/03/30 12:40:19;;;;;;;34.65;7.05;;;;;;;;;;5058296;28;20045;-59
2021/03/30 12:42:47;;;;;;;36.78;8.15;;;;;;;;;;5058541;28;20547;-59
2021/03/30 12:45:14;;;;;;;39.33;6.55;;;;;;;;;;5067396;28;20052;-59
2021/03/30 12:47:40;;;;;;;27.75;6.20;;;;;;;;;;5067125;28;20191;-59
2021/03/30 12:50:07;;;;;;;31.20;5.85;;;;;;;;;;5063381;28;20491;-59
2021/03/30 12:52:33;;;;;;;24.40;5.57;;;;;;;;;;5064090;28;20107;-59
2021/03/30 12:55:11;;;;;;;31.67;6.75;;;;;;;;;;5066758;28;20128;-59
2021/03/30 12:57:38;;;;;;;29.95;5.93;;;;;;;;;;5069574;28;20438;-59
2021/03/30 13:00:05;;;;;;;28.98;5.30;;;;;;;;;;5061545;28;20040;-59
2021/03/30 13:02:32;;;;;;;33.25;6.00;;;;;;;;;;5060030;28;20128;-59
2021/03/30 13:04:59;;;;;;;;;;;;;;;;;;5067417;28;20063;-59
2021/03/30 13:07:25;;;;;;;24.30;5.72;;;;;;;;;;5062201;28;19920;-59
2021/03/30 13:09:51;;;;;;;28.67;5.97;;;;;;;;;;5064447;28;20046;-59
2021/03/30 13:12:18;;;;;;;28.50;6.15;;;;;;;;;;5065592;28;20052;-59
2021/03/30 13:15:00;;;;;;;28.48;6.72;;;;;;;;;;5064005;28;20053;-59
2021/03/30 13:17:27;;;;;;;34.03;6.82;;;;;;;;;;5059723;28;20045;-59
2021/03/30 13:19:53;;;;;;;29.48;5.80;;;;;;;;;;5061830;28;20147;-60
2021/03/30 13:22:21;;;;;;;35.20;6.50;;;;;;;;;;5065976;28;20056;-59
2021/03/30 13:24:48;;;;;;;27.40;5.95;;;;;;;;;;5064777;28;20119;-59
2021/03/30 13:27:16;;;;;;;27.38;5.45;;;;;;;;;;5065750;28;20064;-59
2021/03/30 13:29:43;;;;;;;30.60;6.07;;;;;;;;;;5065518;28;20133;-59
2021/03/30 13:32:09;;;;;;;33.50;6.15;;;;;;;;;;5063995;28;20052;-59
2021/03/30 13:34:36;;;;;;;35.13;6.45;;;;;;;;;;5058918;28;20043;-59
2021/03/30 13:37:02;;;;;;;46.40;8.05;;;;;;;;;;5063518;28;20045;-59
2021/03/30 13:39:29;;;;;;;40.92;7.25;;;;;;;;;;5065004;28;20048;-59
2021/03/30 13:41:56;;;;;;;34.00;7.18;;;;;;;;;;5060956;28;20106;-59
2021/03/30 13:44:26;;;;;;;34.63;7.10;;;;;;;;;;5066921;28;20037;-59
2021/03/30 13:46:54;;;;;;;29.17;5.50;;;;;;;;;;5060328;28;20132;-59
2021/03/30 13:49:20;;;;;;;25.97;5.93;;;;;;;;;;5061436;28;20040;-59
2021/03/30 13:51:47;;;;;;;33.58;5.95;;;;;;;;;;5060929;28;20553;-59
2021/03/30 13:54:14;;;;;;;23.33;6.45;;;;;;;;;;5060842;28;20443;-59
2021/03/30 13:56:41;;;;;;;31.98;6.97;;;;;;;;;;5066899;28;20052;-59
2021/03/30 13:59:07;;;;;;;35.17;6.47;;;;;;;;;;5063925;28;20037;-59
2021/03/30 14:01:34;;;;;;;37.03;7.13;;;;;;;;;;5061767;28;20377;-59
2021/03/30 14:04:00;;;;;;;28.40;6.95;;;;;;;;;;5061705;28;20064;-59
2021/03/30 14:06:27;;;;;;;36.60;7.68;;;;;;;;;;5067372;28;20077;-59
2021/03/30 14:08:53;;;;;;;26.87;6.87;;;;;;;;;;5060159;28;20419;-59
2021/03/30 14:11:22;;;;;;;42.22;6.35;;;;;;;;;;5059582;28;20446;-59
2021/03/30 14:13:53;;;;;;;34.42;7.30;;;;;;;;;;5062150;28;20511;-59
2021/03/30 14:16:24;;;;;;;40.90;7.35;;;;;;;;;;5061010;28;20049;-59
2021/03/30 14:21:34;;;;;;;32.20;6.78;;;;;;;;;;5067322;28;20041;-59
2021/03/30 14:24:13;;;;;;;45.45;6.95;;;;;;;;;;5064879;28;20539;-59
2021/03/30 14:26:39;;;;;;;;;;;;;;;;;;5064723;28;20059;-59
2021/03/30 14:29:26;;;;;;;37.65;7.18;;;;;;;;;;5065813;28;19927;-59
2021/03/30 14:32:06;;;;;;;40.28;7.43;;;;;;;;;;5066964;28;20045;-59
2021/03/30 14:34:33;;;;;;;36.85;7.43;;;;;;;;;;5067768;28;20043;-58
2021/03/30 14:36:59;;;;;;;25.88;6.25;;;;;;;;;;5067154;28;20090;-59
2021/03/30 14:39:26;;;;;;;39.07;7.33;;;;;;;;;;5065396;28;20040;-59
2021/03/30 14:42:04;;;;;;;30.83;6.88;;;;;;;;;;5064509;28;20075;-59
2021/03/30 14:45:10;;;;;;;38.83;7.13;;;;;;;;;;5065853;28;20040;-59